Time,TemperatureF,DewpointF,PressureIn,WindDirection,WindDirectionDegrees,WindSpeedMPH,WindSpeedGustMPH,Humidity,HourlyPrecipIn,Conditions,Clouds,dailyrainin,SoftwareType,DateUTC
2013-02-03 00:01:00,50.2,48.7,29.94,North,353,0.0,0.0,95,0.00,,,0.00,meteohub,2013-02-03 08:01:00,
2013-02-03 00:06:00,50.2,48.7,29.94,NNW,333,0.0,0.0,95,0.00,,,0.00,meteohub,2013-02-03 08:06:00,
2013-02-03 00:11:00,50.2,48.7,29.94,NNW,343,0.0,3.0,95,0.00,,,0.00,meteohub,2013-02-03 08:11:00,
2013-02-03 00:16:00,50.2,48.7,29.94,NW,316,0.0,4.0,95,0.00,,,0.00,meteohub,2013-02-03 08:16:00,
2013-02-03 00:21:00,50.0,48.6,29.94,NNW,331,0.0,4.0,95,0.00,,,0.00,meteohub,2013-02-03 08:21:00,
2013-02-03 00:26:00,50.0,48.4,29.94,NNW,338,0.0,0.0,94,0.00,,,0.00,meteohub,2013-02-03 08:26:00,
2013-02-03 00:31:00,49.8,48.4,29.94,NW,317,0.0,0.0,95,0.00,,,0.00,meteohub,2013-02-03 08:31:00,
2013-02-03 00:37:00,49.6,48.0,29.94,NW,313,0.0,0.0,94,0.00,,,0.00,meteohub,2013-02-03 08:37:00,
2013-02-03 00:42:00,49.5,47.8,29.94,NW,318,0.0,0.0,94,0.00,,,0.00,meteohub,2013-02-03 08:42:00,
2013-02-03 00:47:00,49.3,47.7,29.94,NNW,328,0.0,0.0,94,0.00,,,0.00,meteohub,2013-02-03 08:47:00,
2013-02-03 00:52:00,49.1,47.5,29.94,NNW,341,0.0,0.0,94,0.00,,,0.00,meteohub,2013-02-03 08:52:00,
2013-02-03 00:57:00,49.1,47.5,29.94,NNW,336,0.0,3.0,94,0.00,,,0.00,meteohub,2013-02-03 08:57:00,
2013-02-03 01:02:00,48.9,47.3,29.94,NNW,338,0.0,3.0,94,0.00,,,0.00,meteohub,2013-02-03 09:02:00,
2013-02-03 01:07:00,48.7,46.8,29.94,North,349,0.0,3.0,93,0.00,,,0.00,meteohub,2013-02-03 09:07:00,
2013-02-03 01:12:00,48.7,46.8,29.94,NNW,328,0.0,0.0,93,0.00,,,0.00,meteohub,2013-02-03 09:12:00,
2013-02-03 01:17:00,48.7,46.8,29.94,NNW,341,0.0,0.0,93,0.00,,,0.00,meteohub,2013-02-03 09:17:00,
2013-02-03 01:22:00,48.6,46.6,29.94,North,357,0.0,0.0,93,0.00,,,0.00,meteohub,2013-02-03 09:22:00,
2013-02-03 01:27:00,48.6,46.6,29.94,North,353,0.0,0.0,93,0.00,,,0.00,meteohub,2013-02-03 09:27:00,
2013-02-03 01:32:00,48.6,46.6,29.94,NNW,345,0.0,0.0,93,0.00,,,0.00,meteohub,2013-02-03 09:32:00,
2013-02-03 01:37:00,48.4,46.4,29.94,NNW,343,0.0,0.0,93,0.00,,,0.00,meteohub,2013-02-03 09:37:00,
2013-02-03 01:42:00,48.4,46.4,29.94,NNW,343,0.0,0.0,93,0.00,,,0.00,meteohub,2013-02-03 09:42:00,
2013-02-03 01:47:00,48.4,46.4,29.94,NNW,343,0.0,0.0,93,0.00,,,0.00,meteohub,2013-02-03 09:47:00,
2013-02-03 01:52:00,48.2,46.2,29.94,NW,315,0.0,0.0,93,0.00,,,0.00,meteohub,2013-02-03 09:52:00,
2013-02-03 01:58:00,48.2,46.2,29.94,WNW,299,0.0,0.0,93,0.00,,,0.00,meteohub,2013-02-03 09:58:00,
2013-02-03 02:03:00,48.0,46.4,29.94,NW,318,0.0,0.0,94,0.00,,,0.00,meteohub,2013-02-03 10:03:00,
2013-02-03 02:08:00,47.8,46.2,29.91,NW,324,0.0,0.0,94,0.00,,,0.00,meteohub,2013-02-03 10:08:00,
2013-02-03 02:13:00,47.8,46.2,29.91,NW,314,0.0,0.0,94,0.00,,,0.00,meteohub,2013-02-03 10:13:00,
2013-02-03 02:18:00,47.7,46.0,29.91,NW,315,0.0,0.0,94,0.00,,,0.00,meteohub,2013-02-03 10:18:00,
2013-02-03 02:23:00,47.1,45.1,29.91,NW,308,0.0,0.0,93,0.00,,,0.00,meteohub,2013-02-03 10:23:00,
2013-02-03 02:28:00,46.9,45.0,29.91,NW,317,0.0,4.0,93,0.00,,,0.00,meteohub,2013-02-03 10:28:00,
2013-02-03 02:33:00,46.8,44.8,29.91,NW,319,0.0,4.0,93,0.00,,,0.00,meteohub,2013-02-03 10:33:00,
2013-02-03 02:38:00,46.8,44.8,29.91,NW,317,0.0,4.0,93,0.00,,,0.00,meteohub,2013-02-03 10:38:00,
2013-02-03 02:43:00,46.6,44.6,29.91,NW,317,0.0,3.0,93,0.00,,,0.00,meteohub,2013-02-03 10:43:00,
2013-02-03 02:49:00,46.4,44.4,29.91,NW,317,0.0,0.0,93,0.00,,,0.00,meteohub,2013-02-03 10:49:00,
2013-02-03 02:54:00,46.2,44.2,29.91,NW,317,0.0,0.0,93,0.00,,,0.00,meteohub,2013-02-03 10:54:00,
2013-02-03 02:59:00,45.9,43.9,29.91,NW,304,0.0,0.0,93,0.00,,,0.00,meteohub,2013-02-03 10:59:00,
2013-02-03 03:04:00,45.5,43.5,29.91,WNW,288,0.0,3.0,93,0.00,,,0.00,meteohub,2013-02-03 11:04:00,
2013-02-03 03:09:00,45.3,43.3,29.91,WNW,288,0.0,3.0,93,0.00,,,0.00,meteohub,2013-02-03 11:09:00,
2013-02-03 03:14:00,44.8,42.6,29.91,NW,316,0.0,3.0,92,0.00,,,0.00,meteohub,2013-02-03 11:14:00,
2013-02-03 03:19:00,44.6,42.4,29.91,WNW,291,0.0,0.0,92,0.00,,,0.00,meteohub,2013-02-03 11:19:00,
2013-02-03 03:24:00,44.2,42.3,29.91,WNW,303,0.0,0.0,93,0.00,,,0.00,meteohub,2013-02-03 11:24:00,
2013-02-03 03:29:00,44.1,42.1,29.91,WNW,302,0.0,0.0,93,0.00,,,0.00,meteohub,2013-02-03 11:29:00,
2013-02-03 03:34:00,43.7,41.5,29.91,NW,311,0.0,0.0,92,0.00,,,0.00,meteohub,2013-02-03 11:34:00,
2013-02-03 03:39:00,43.3,41.2,29.91,NW,311,3.0,0.0,92,0.00,,,0.00,meteohub,2013-02-03 11:39:00,
2013-02-03 03:44:00,43.2,41.0,29.91,WNW,301,0.0,3.0,92,0.00,,,0.00,meteohub,2013-02-03 11:44:00,
2013-02-03 03:49:00,43.0,40.8,29.91,WNW,294,4.0,4.0,92,0.00,,,0.00,meteohub,2013-02-03 11:49:00,
2013-02-03 03:55:00,42.8,40.6,29.91,WNW,303,0.0,4.0,92,0.00,,,0.00,meteohub,2013-02-03 11:55:00,
2013-02-03 04:00:00,42.8,40.6,29.91,NW,319,0.0,4.0,92,0.00,,,0.00,meteohub,2013-02-03 12:00:00,
2013-02-03 04:05:00,43.0,40.8,29.91,NNW,331,0.0,4.0,92,0.00,,,0.00,meteohub,2013-02-03 12:05:00,
2013-02-03 04:10:00,43.2,41.4,29.91,NNW,331,0.0,3.0,93,0.00,,,0.00,meteohub,2013-02-03 12:10:00,
2013-02-03 04:15:00,43.3,41.5,29.91,NNW,331,0.0,3.0,93,0.00,,,0.00,meteohub,2013-02-03 12:15:00,
2013-02-03 04:20:00,43.3,41.5,29.91,NNE,18,0.0,0.0,93,0.00,,,0.00,meteohub,2013-02-03 12:20:00,
2013-02-03 04:25:00,43.3,41.5,29.91,NE,40,0.0,0.0,93,0.00,,,0.00,meteohub,2013-02-03 12:25:00,
2013-02-03 04:30:00,43.3,41.5,29.91,NE,40,0.0,0.0,93,0.00,,,0.00,meteohub,2013-02-03 12:30:00,
2013-02-03 04:35:00,43.5,41.7,29.91,NE,40,0.0,0.0,93,0.00,,,0.00,meteohub,2013-02-03 12:35:00,
2013-02-03 04:40:00,43.7,42.1,29.91,NE,39,0.0,0.0,94,0.00,,,0.00,meteohub,2013-02-03 12:40:00,
2013-02-03 04:45:00,43.9,42.3,29.91,NE,40,0.0,0.0,94,0.00,,,0.00,meteohub,2013-02-03 12:45:00,
2013-02-03 04:51:00,44.1,42.4,29.91,NE,40,0.0,0.0,94,0.00,,,0.00,meteohub,2013-02-03 12:51:00,
2013-02-03 04:56:00,44.1,42.4,29.91,NE,40,0.0,0.0,94,0.00,,,0.00,meteohub,2013-02-03 12:56:00,
2013-02-03 05:01:00,44.2,42.6,29.91,NE,40,0.0,0.0,94,0.00,,,0.00,meteohub,2013-02-03 13:01:00,
2013-02-03 05:06:00,44.4,42.8,29.91,NE,40,0.0,0.0,94,0.00,,,0.00,meteohub,2013-02-03 13:06:00,
2013-02-03 05:11:00,44.6,43.0,29.91,NE,39,0.0,0.0,94,0.00,,,0.00,meteohub,2013-02-03 13:11:00,
2013-02-03 05:16:00,44.8,43.2,29.91,NE,40,0.0,0.0,94,0.00,,,0.00,meteohub,2013-02-03 13:16:00,
2013-02-03 05:21:00,45.0,43.3,29.91,NE,39,0.0,0.0,94,0.00,,,0.00,meteohub,2013-02-03 13:21:00,
2013-02-03 05:26:00,45.1,43.5,29.91,NE,40,0.0,0.0,94,0.00,,,0.00,meteohub,2013-02-03 13:26:00,
2013-02-03 05:31:00,45.3,43.7,29.91,NE,39,0.0,0.0,94,0.00,,,0.00,meteohub,2013-02-03 13:31:00,
2013-02-03 05:36:00,45.5,43.9,29.91,NE,40,0.0,0.0,94,0.00,,,0.00,meteohub,2013-02-03 13:36:00,
2013-02-03 05:41:00,45.5,43.9,29.91,NE,40,0.0,0.0,94,0.00,,,0.00,meteohub,2013-02-03 13:41:00,
2013-02-03 05:42:00,45.5,43.9,29.91,NE,40,0.0,0.0,94,0.00,,,0.00,meteohub,2013-02-03 13:42:00,
2013-02-03 05:52:00,45.9,44.2,29.91,NE,40,0.0,0.0,94,0.00,,,0.00,meteohub,2013-02-03 13:52:00,
2013-02-03 05:57:00,45.9,44.2,29.91,NE,40,0.0,0.0,94,0.00,,,0.00,meteohub,2013-02-03 13:57:00,
2013-02-03 06:02:00,45.9,44.2,29.91,NE,40,0.0,0.0,94,0.00,,,0.00,meteohub,2013-02-03 14:02:00,
2013-02-03 06:07:00,45.9,44.2,29.91,NE,40,0.0,0.0,94,0.00,,,0.00,meteohub,2013-02-03 14:07:00,
2013-02-03 06:12:00,46.0,44.6,29.91,NE,56,0.0,0.0,95,0.00,,,0.00,meteohub,2013-02-03 14:12:00,
2013-02-03 06:17:00,46.0,44.6,29.91,NE,55,0.0,0.0,95,0.00,,,0.00,meteohub,2013-02-03 14:17:00,
2013-02-03 06:22:00,46.0,44.6,29.91,NE,55,0.0,0.0,95,0.00,,,0.00,meteohub,2013-02-03 14:22:00,
2013-02-03 06:27:00,46.0,44.6,29.91,NE,55,0.0,0.0,95,0.00,,,0.00,meteohub,2013-02-03 14:27:00,
2013-02-03 06:33:00,46.2,44.8,29.91,NE,55,0.0,0.0,95,0.00,,,0.00,meteohub,2013-02-03 14:33:00,
2013-02-03 06:38:00,46.2,44.8,29.94,NE,56,0.0,0.0,95,0.00,,,0.00,meteohub,2013-02-03 14:38:00,
2013-02-03 06:43:00,46.2,45.1,29.94,NE,56,0.0,0.0,96,0.00,,,0.00,meteohub,2013-02-03 14:43:00,
2013-02-03 06:48:00,46.4,45.0,29.94,NE,55,0.0,0.0,95,0.00,,,0.00,meteohub,2013-02-03 14:48:00,
2013-02-03 06:53:00,46.4,45.0,29.94,NE,55,0.0,0.0,95,0.00,,,0.00,meteohub,2013-02-03 14:53:00,
2013-02-03 06:58:00,46.6,45.5,29.94,NE,55,0.0,0.0,96,0.00,,,0.00,meteohub,2013-02-03 14:58:00,
2013-02-03 07:03:00,46.6,45.5,29.94,NE,55,0.0,0.0,96,0.00,,,0.00,meteohub,2013-02-03 15:03:00,
2013-02-03 07:08:00,46.6,45.5,29.94,NE,55,0.0,0.0,96,0.00,,,0.00,meteohub,2013-02-03 15:08:00,
2013-02-03 07:13:00,46.8,45.7,29.94,NE,56,0.0,0.0,96,0.00,,,0.00,meteohub,2013-02-03 15:13:00,
2013-02-03 07:18:00,46.8,45.7,29.94,NE,56,0.0,0.0,96,0.00,,,0.00,meteohub,2013-02-03 15:18:00,
2013-02-03 07:23:00,46.9,45.9,29.94,NE,55,0.0,0.0,96,0.00,,,0.00,meteohub,2013-02-03 15:23:00,
2013-02-03 07:29:00,46.9,45.9,29.94,NE,56,0.0,0.0,96,0.00,,,0.00,meteohub,2013-02-03 15:29:00,
2013-02-03 07:34:00,46.9,45.9,29.94,NE,55,0.0,0.0,96,0.00,,,0.00,meteohub,2013-02-03 15:34:00,
2013-02-03 07:39:00,46.9,45.9,29.91,NE,56,0.0,0.0,96,0.00,,,0.00,meteohub,2013-02-03 15:39:00,
2013-02-03 07:44:00,47.1,46.0,29.91,NE,55,0.0,0.0,96,0.00,,,0.00,meteohub,2013-02-03 15:44:00,
2013-02-03 07:49:00,47.1,46.0,29.91,NE,55,0.0,0.0,96,0.00,,,0.00,meteohub,2013-02-03 15:49:00,
2013-02-03 07:54:00,47.1,46.0,29.94,NE,55,0.0,0.0,96,0.00,,,0.00,meteohub,2013-02-03 15:54:00,
2013-02-03 07:59:00,47.3,46.2,29.94,NE,55,0.0,0.0,96,0.00,,,0.00,meteohub,2013-02-03 15:59:00,
2013-02-03 08:04:00,47.3,46.2,29.94,NE,55,0.0,0.0,96,0.00,,,0.00,meteohub,2013-02-03 16:04:00,
2013-02-03 08:09:00,47.3,46.2,29.94,NE,55,0.0,0.0,96,0.00,,,0.00,meteohub,2013-02-03 16:09:00,
2013-02-03 08:14:00,47.5,46.4,29.94,ENE,61,0.0,0.0,96,0.00,,,0.00,meteohub,2013-02-03 16:14:00,
2013-02-03 08:20:00,47.5,46.4,29.94,ENE,61,0.0,0.0,96,0.00,,,0.00,meteohub,2013-02-03 16:20:00,
2013-02-03 08:25:00,47.7,46.9,29.94,ENE,61,0.0,0.0,97,0.00,,,0.00,meteohub,2013-02-03 16:25:00,
2013-02-03 08:30:00,47.7,46.9,29.94,ENE,60,0.0,0.0,97,0.00,,,0.00,meteohub,2013-02-03 16:30:00,
2013-02-03 08:35:00,47.8,46.9,29.94,ENE,61,0.0,0.0,97,0.00,,,0.00,meteohub,2013-02-03 16:35:00,
2013-02-03 08:40:00,47.8,46.9,29.94,ENE,60,0.0,0.0,97,0.00,,,0.00,meteohub,2013-02-03 16:40:00,
2013-02-03 08:45:00,48.0,47.1,29.94,ENE,60,0.0,0.0,97,0.00,,,0.00,meteohub,2013-02-03 16:45:00,
2013-02-03 08:50:00,48.2,47.1,29.94,ENE,61,0.0,0.0,96,0.00,,,0.00,meteohub,2013-02-03 16:50:00,
2013-02-03 08:56:00,48.4,47.3,29.94,ENE,61,0.0,0.0,96,0.00,,,0.00,meteohub,2013-02-03 16:56:00,
2013-02-03 09:01:00,48.6,47.7,29.94,ENE,61,0.0,0.0,97,0.00,,,0.00,meteohub,2013-02-03 17:01:00,
2013-02-03 09:06:00,48.6,47.7,29.91,ENE,61,0.0,0.0,97,0.00,,,0.00,meteohub,2013-02-03 17:06:00,
2013-02-03 09:11:00,48.7,47.8,29.91,ENE,61,0.0,0.0,97,0.00,,,0.00,meteohub,2013-02-03 17:11:00,
2013-02-03 09:16:00,48.7,47.8,29.91,ENE,61,0.0,0.0,97,0.00,,,0.00,meteohub,2013-02-03 17:16:00,
2013-02-03 09:21:00,48.7,47.8,29.91,ENE,61,0.0,0.0,97,0.00,,,0.00,meteohub,2013-02-03 17:21:00,
2013-02-03 09:26:00,48.9,48.0,29.91,ENE,61,0.0,0.0,97,0.00,,,0.00,meteohub,2013-02-03 17:26:00,
2013-02-03 09:31:00,49.1,48.2,29.91,ENE,60,0.0,0.0,97,0.00,,,0.00,meteohub,2013-02-03 17:31:00,
2013-02-03 09:36:00,49.3,48.4,29.91,SE,124,0.0,0.0,97,0.00,,,0.00,meteohub,2013-02-03 17:36:00,
2013-02-03 09:41:00,49.5,48.6,29.91,SE,133,0.0,0.0,97,0.00,,,0.00,meteohub,2013-02-03 17:41:00,
2013-02-03 09:46:00,49.5,48.6,29.91,SSE,150,0.0,0.0,97,0.00,,,0.00,meteohub,2013-02-03 17:46:00,
2013-02-03 09:52:00,49.6,48.7,29.94,SSE,149,0.0,0.0,97,0.00,,,0.00,meteohub,2013-02-03 17:52:00,
2013-02-03 09:57:00,49.6,48.7,29.94,SSE,159,0.0,0.0,97,0.00,,,0.00,meteohub,2013-02-03 17:57:00,
2013-02-03 10:02:00,49.8,48.9,29.94,South,187,0.0,0.0,97,0.00,,,0.00,meteohub,2013-02-03 18:02:00,
2013-02-03 10:07:00,50.0,49.1,29.94,WSW,240,0.0,0.0,97,0.00,,,0.00,meteohub,2013-02-03 18:07:00,
2013-02-03 10:12:00,50.2,49.3,29.94,WSW,243,0.0,0.0,97,0.00,,,0.00,meteohub,2013-02-03 18:12:00,
2013-02-03 10:17:00,50.4,49.5,29.94,South,179,0.0,0.0,97,0.00,,,0.00,meteohub,2013-02-03 18:17:00,
2013-02-03 10:22:00,50.4,49.5,29.94,SW,224,0.0,0.0,97,0.00,,,0.00,meteohub,2013-02-03 18:22:00,
2013-02-03 10:27:00,50.5,49.6,29.94,SSW,193,0.0,0.0,97,0.00,,,0.00,meteohub,2013-02-03 18:27:00,
2013-02-03 10:33:00,50.5,49.6,29.94,South,173,0.0,0.0,97,0.00,,,0.00,meteohub,2013-02-03 18:33:00,
2013-02-03 10:38:00,50.5,49.6,29.94,SSE,163,0.0,0.0,97,0.00,,,0.00,meteohub,2013-02-03 18:38:00,
2013-02-03 10:43:00,50.5,49.6,29.94,South,189,0.0,0.0,97,0.00,,,0.00,meteohub,2013-02-03 18:43:00,
2013-02-03 10:48:00,50.5,49.6,29.94,SE,144,3.0,0.0,97,0.00,,,0.00,meteohub,2013-02-03 18:48:00,
2013-02-03 10:53:00,50.7,49.8,29.94,South,178,0.0,4.0,97,0.00,,,0.00,meteohub,2013-02-03 18:53:00,
2013-02-03 10:58:00,50.7,49.8,29.94,SW,216,0.0,4.0,97,0.00,,,0.00,meteohub,2013-02-03 18:58:00,
2013-02-03 11:03:00,50.7,49.8,29.94,SW,222,0.0,4.0,97,0.00,,,0.00,meteohub,2013-02-03 19:03:00,
2013-02-03 11:08:00,50.7,49.8,29.94,SW,232,0.0,0.0,97,0.00,,,0.00,meteohub,2013-02-03 19:08:00,
2013-02-03 11:14:00,50.9,50.0,29.94,SW,216,0.0,0.0,97,0.00,,,0.00,meteohub,2013-02-03 19:14:00,
2013-02-03 11:19:00,50.9,49.8,29.94,South,181,0.0,2.0,96,0.00,,,0.00,meteohub,2013-02-03 19:19:00,
2013-02-03 11:24:00,50.9,49.8,29.94,South,177,2.0,3.0,96,0.00,,,0.00,meteohub,2013-02-03 19:24:00,
2013-02-03 11:29:00,51.1,50.0,29.94,SSE,163,3.0,4.0,96,0.00,,,0.00,meteohub,2013-02-03 19:29:00,
2013-02-03 11:34:00,51.1,50.0,29.94,SSE,166,0.0,4.0,96,0.00,,,0.00,meteohub,2013-02-03 19:34:00,
2013-02-03 11:39:00,51.3,50.2,29.94,South,171,0.0,4.0,96,0.00,,,0.00,meteohub,2013-02-03 19:39:00,
2013-02-03 11:44:00,51.4,50.4,29.94,SSE,159,0.0,3.0,96,0.00,,,0.00,meteohub,2013-02-03 19:44:00,
2013-02-03 11:49:00,51.4,50.4,29.91,ESE,111,0.0,4.0,96,0.00,,,0.00,meteohub,2013-02-03 19:49:00,
2013-02-03 11:54:00,51.4,50.0,29.91,SSE,152,0.0,4.0,95,0.00,,,0.00,meteohub,2013-02-03 19:54:00,
2013-02-03 11:59:00,51.6,50.2,29.91,SE,145,0.0,4.0,95,0.00,,,0.00,meteohub,2013-02-03 19:59:00,
2013-02-03 12:05:00,52.0,50.5,29.91,South,179,0.0,4.0,95,0.00,,,0.00,meteohub,2013-02-03 20:05:00,
2013-02-03 12:10:00,52.3,50.9,29.91,South,169,0.0,0.0,95,0.00,,,0.00,meteohub,2013-02-03 20:10:00,
2013-02-03 12:15:00,52.5,50.9,29.91,SSE,154,0.0,0.0,94,0.00,,,0.00,meteohub,2013-02-03 20:15:00,
2013-02-03 12:20:00,52.7,51.1,29.91,South,179,0.0,0.0,94,0.00,,,0.00,meteohub,2013-02-03 20:20:00,
2013-02-03 12:25:00,52.9,51.3,29.91,West,273,0.0,0.0,94,0.00,,,0.00,meteohub,2013-02-03 20:25:00,
2013-02-03 12:30:00,52.7,50.7,29.91,SW,226,0.0,0.0,93,0.00,,,0.00,meteohub,2013-02-03 20:30:00,
2013-02-03 12:35:00,52.7,50.4,29.88,West,265,0.0,6.0,92,0.00,,,0.00,meteohub,2013-02-03 20:35:00,
2013-02-03 12:40:00,52.9,50.4,29.88,WSW,248,0.0,6.0,91,0.00,,,0.00,meteohub,2013-02-03 20:40:00,
2013-02-03 12:45:00,52.9,50.0,29.88,West,275,0.0,6.0,90,0.00,,,0.00,meteohub,2013-02-03 20:45:00,
2013-02-03 12:50:00,53.1,49.8,29.88,West,276,0.0,4.0,89,0.00,,,0.00,meteohub,2013-02-03 20:50:00,
2013-02-03 12:56:00,53.2,49.8,29.88,SW,234,0.0,4.0,88,0.00,,,0.00,meteohub,2013-02-03 20:56:00,
2013-02-03 13:01:00,53.1,48.7,29.88,NW,310,0.0,4.0,85,0.00,,,0.00,meteohub,2013-02-03 21:01:00,
2013-02-03 13:06:00,52.9,48.2,29.88,NW,317,0.0,4.0,84,0.00,,,0.00,meteohub,2013-02-03 21:06:00,
2013-02-03 13:11:00,53.1,47.7,29.88,NW,319,0.0,0.0,82,0.00,,,0.00,meteohub,2013-02-03 21:11:00,
2013-02-03 13:16:00,53.6,48.2,29.88,East,81,0.0,0.0,82,0.00,,,0.00,meteohub,2013-02-03 21:16:00,
2013-02-03 13:21:00,54.5,49.1,29.86,South,182,0.0,0.0,82,0.00,,,0.00,meteohub,2013-02-03 21:21:00,
2013-02-03 13:26:00,55.2,49.8,29.86,SSW,195,0.0,5.0,82,0.00,,,0.00,meteohub,2013-02-03 21:26:00,
2013-02-03 13:31:00,55.9,50.2,29.86,SSE,151,5.0,5.0,81,0.00,,,0.00,meteohub,2013-02-03 21:31:00,
2013-02-03 13:36:00,55.8,49.6,29.86,SE,133,4.0,5.0,80,0.00,,,0.00,meteohub,2013-02-03 21:36:00,
2013-02-03 13:41:00,56.1,48.9,29.86,SSE,153,0.0,5.0,77,0.00,,,0.00,meteohub,2013-02-03 21:41:00,
2013-02-03 13:46:00,56.1,48.4,29.86,SSE,148,5.0,6.0,75,0.00,,,0.00,meteohub,2013-02-03 21:46:00,
2013-02-03 13:52:00,56.8,48.6,29.86,SE,142,5.0,6.0,74,0.00,,,0.00,meteohub,2013-02-03 21:52:00,
2013-02-03 13:57:00,58.3,49.6,29.86,SSW,211,3.0,6.0,73,0.00,,,0.00,meteohub,2013-02-03 21:57:00,
2013-02-03 14:02:00,57.7,48.0,29.86,South,180,3.0,6.0,70,0.00,,,0.00,meteohub,2013-02-03 22:02:00,
2013-02-03 14:07:00,59.4,49.6,29.86,SSE,167,3.0,6.0,70,0.00,,,0.00,meteohub,2013-02-03 22:07:00,
2013-02-03 14:12:00,64.4,52.3,29.86,West,278,0.0,6.0,65,0.00,,,0.00,meteohub,2013-02-03 22:12:00,
2013-02-03 14:17:00,68.9,52.0,29.86,WSW,248,2.0,5.0,55,0.00,,,0.00,meteohub,2013-02-03 22:17:00,
2013-02-03 14:22:00,68.0,47.7,29.86,WNW,282,0.0,4.0,48,0.00,,,0.00,meteohub,2013-02-03 22:22:00,
2013-02-03 14:27:00,64.0,45.5,29.86,ESE,111,3.0,5.0,51,0.00,,,0.00,meteohub,2013-02-03 22:27:00,
2013-02-03 14:32:00,61.5,45.7,29.86,East,93,5.0,5.0,56,0.00,,,0.00,meteohub,2013-02-03 22:32:00,
2013-02-03 14:37:00,60.4,46.0,29.86,ENE,66,3.0,6.0,59,0.00,,,0.00,meteohub,2013-02-03 22:37:00,
2013-02-03 14:42:00,59.5,46.0,29.86,ENE,62,0.0,6.0,61,0.00,,,0.00,meteohub,2013-02-03 22:42:00,
2013-02-03 14:48:00,60.1,46.9,29.86,ESE,104,6.0,6.0,62,0.00,,,0.00,meteohub,2013-02-03 22:48:00,
2013-02-03 14:53:00,59.4,45.5,29.86,ESE,110,9.0,9.0,60,0.00,,,0.00,meteohub,2013-02-03 22:53:00,
2013-02-03 14:58:00,58.8,45.0,29.86,ESE,119,6.0,8.0,60,0.00,,,0.00,meteohub,2013-02-03 22:58:00,
2013-02-03 15:03:00,58.5,45.5,29.86,ESE,112,6.0,9.0,62,0.00,,,0.00,meteohub,2013-02-03 23:03:00,
2013-02-03 15:08:00,57.9,45.3,29.86,ESE,118,6.0,9.0,63,0.00,,,0.00,meteohub,2013-02-03 23:08:00,
2013-02-03 15:13:00,57.6,45.1,29.86,ESE,117,6.0,11.0,63,0.00,,,0.00,meteohub,2013-02-03 23:13:00,
2013-02-03 15:18:00,57.4,45.3,29.86,ESE,107,6.0,11.0,64,0.00,,,0.00,meteohub,2013-02-03 23:18:00,
2013-02-03 15:23:00,57.0,45.3,29.86,SE,127,6.0,11.0,65,0.00,,,0.00,meteohub,2013-02-03 23:23:00,
2013-02-03 15:28:00,56.7,45.5,29.86,SSE,157,5.0,8.0,66,0.00,,,0.00,meteohub,2013-02-03 23:28:00,
2013-02-03 15:33:00,56.3,45.1,29.86,ESE,106,5.0,10.0,66,0.00,,,0.00,meteohub,2013-02-03 23:33:00,
2013-02-03 15:38:00,55.8,44.6,29.86,ESE,117,6.0,10.0,66,0.00,,,0.00,meteohub,2013-02-03 23:38:00,
2013-02-03 15:43:00,55.0,44.2,29.86,ESE,112,5.0,10.0,67,0.00,,,0.00,meteohub,2013-02-03 23:43:00,
2013-02-03 15:48:00,54.7,44.2,29.86,ESE,114,5.0,8.0,68,0.00,,,0.00,meteohub,2013-02-03 23:48:00,
2013-02-03 15:53:00,54.5,44.6,29.86,ESE,107,5.0,9.0,69,0.00,,,0.00,meteohub,2013-02-03 23:53:00,
2013-02-03 15:58:00,54.1,44.2,29.86,East,82,6.0,9.0,69,0.00,,,0.00,meteohub,2013-02-03 23:58:00,
2013-02-03 16:04:00,53.8,43.9,29.86,SE,125,2.0,8.0,69,0.00,,,0.00,meteohub,2013-02-04 00:04:00,
2013-02-03 16:09:00,53.6,43.7,29.86,NE,41,0.0,8.0,69,0.00,,,0.00,meteohub,2013-02-04 00:09:00,
2013-02-03 16:14:00,53.6,43.7,29.86,East,81,3.0,8.0,69,0.00,,,0.00,meteohub,2013-02-04 00:14:00,
2013-02-03 16:19:00,53.6,43.7,29.86,ENE,69,0.0,5.0,69,0.00,,,0.00,meteohub,2013-02-04 00:19:00,
2013-02-03 16:24:00,53.4,43.5,29.86,NE,53,0.0,6.0,69,0.00,,,0.00,meteohub,2013-02-04 00:24:00,
2013-02-03 16:29:00,53.4,43.5,29.86,ESE,108,6.0,6.0,69,0.00,,,0.00,meteohub,2013-02-04 00:29:00,
2013-02-03 16:34:00,53.4,43.5,29.86,East,100,4.0,8.0,69,0.00,,,0.00,meteohub,2013-02-04 00:34:00,
2013-02-03 16:39:00,53.1,43.2,29.86,ESE,105,6.0,8.0,69,0.00,,,0.00,meteohub,2013-02-04 00:39:00,
2013-02-03 16:44:00,52.9,43.0,29.86,East,98,0.0,8.0,69,0.00,,,0.00,meteohub,2013-02-04 00:44:00,
2013-02-03 16:49:00,52.7,43.2,29.86,SE,127,4.0,7.0,70,0.00,,,0.00,meteohub,2013-02-04 00:49:00,
2013-02-03 16:55:00,52.5,43.0,29.86,East,94,4.0,7.0,70,0.00,,,0.00,meteohub,2013-02-04 00:55:00,
2013-02-03 17:00:00,52.5,43.0,29.86,ENE,73,0.0,8.0,70,0.00,,,0.00,meteohub,2013-02-04 01:00:00,
2013-02-03 17:05:00,52.2,42.6,29.86,East,90,5.0,8.0,70,0.00,,,0.00,meteohub,2013-02-04 01:05:00,
2013-02-03 17:10:00,52.0,42.8,29.86,East,82,4.0,6.0,71,0.00,,,0.00,meteohub,2013-02-04 01:10:00,
2013-02-03 17:15:00,52.0,43.2,29.86,East,80,4.0,6.0,72,0.00,,,0.00,meteohub,2013-02-04 01:15:00,
2013-02-03 17:20:00,52.0,43.2,29.86,ESE,110,0.0,7.0,72,0.00,,,0.00,meteohub,2013-02-04 01:20:00,
2013-02-03 17:25:00,52.0,43.2,29.86,East,93,0.0,7.0,72,0.00,,,0.00,meteohub,2013-02-04 01:25:00,
2013-02-03 17:30:00,52.0,43.2,29.86,East,82,0.0,4.0,72,0.00,,,0.00,meteohub,2013-02-04 01:30:00,
2013-02-03 17:35:00,51.8,43.0,29.86,ENE,69,0.0,4.0,72,0.00,,,0.00,meteohub,2013-02-04 01:35:00,
2013-02-03 17:40:00,51.8,43.3,29.86,East,83,0.0,3.0,73,0.00,,,0.00,meteohub,2013-02-04 01:40:00,
2013-02-03 17:45:00,51.8,43.3,29.86,ESE,114,3.0,3.0,73,0.00,,,0.00,meteohub,2013-02-04 01:45:00,
2013-02-03 17:51:00,51.8,43.3,29.86,ESE,104,0.0,3.0,73,0.00,,,0.00,meteohub,2013-02-04 01:51:00,
2013-02-03 17:56:00,51.8,43.7,29.86,ENE,63,0.0,3.0,74,0.00,,,0.00,meteohub,2013-02-04 01:56:00,
2013-02-03 18:01:00,51.8,43.7,29.86,ESE,106,0.0,3.0,74,0.00,,,0.00,meteohub,2013-02-04 02:01:00,
2013-02-03 18:06:00,51.8,43.7,29.86,ESE,110,0.0,3.0,74,0.00,,,0.00,meteohub,2013-02-04 02:06:00,
2013-02-03 18:11:00,51.6,43.9,29.86,ESE,110,0.0,0.0,75,0.00,,,0.00,meteohub,2013-02-04 02:11:00,
2013-02-03 18:16:00,51.6,44.2,29.86,NE,54,0.0,0.0,76,0.00,,,0.00,meteohub,2013-02-04 02:16:00,
2013-02-03 18:21:00,51.4,44.4,29.86,North,7,0.0,0.0,77,0.00,,,0.00,meteohub,2013-02-04 02:21:00,
2013-02-03 18:26:00,51.3,44.6,29.86,NE,52,0.0,0.0,78,0.00,,,0.00,meteohub,2013-02-04 02:26:00,
2013-02-03 18:31:00,51.3,44.6,29.86,North,357,0.0,3.0,78,0.00,,,0.00,meteohub,2013-02-04 02:31:00,
2013-02-03 18:36:00,51.1,44.8,29.86,ENE,68,0.0,3.0,79,0.00,,,0.00,meteohub,2013-02-04 02:36:00,
2013-02-03 18:41:00,51.1,45.1,29.86,ENE,64,0.0,3.0,80,0.00,,,0.00,meteohub,2013-02-04 02:41:00,
2013-02-03 18:47:00,51.1,45.1,29.86,ENE,64,0.0,3.0,80,0.00,,,0.00,meteohub,2013-02-04 02:47:00,
2013-02-03 18:52:00,51.1,45.1,29.86,ENE,64,0.0,0.0,80,0.00,,,0.00,meteohub,2013-02-04 02:52:00,
2013-02-03 18:57:00,51.1,45.1,29.86,ENE,64,0.0,0.0,80,0.00,,,0.00,meteohub,2013-02-04 02:57:00,
2013-02-03 19:02:00,50.9,45.3,29.86,ENE,64,0.0,0.0,81,0.00,,,0.00,meteohub,2013-02-04 03:02:00,
2013-02-03 19:07:00,50.7,45.1,29.86,NE,37,0.0,0.0,81,0.00,,,0.00,meteohub,2013-02-04 03:07:00,
2013-02-03 19:12:00,50.7,45.1,29.86,NW,323,0.0,0.0,81,0.00,,,0.00,meteohub,2013-02-04 03:12:00,
2013-02-03 19:17:00,50.5,44.6,29.86,NNW,333,0.0,0.0,80,0.00,,,0.00,meteohub,2013-02-04 03:17:00,
2013-02-03 19:22:00,50.4,44.4,29.86,NNW,337,0.0,0.0,80,0.00,,,0.00,meteohub,2013-02-04 03:22:00,
2013-02-03 19:27:00,50.2,44.2,29.86,NNW,337,0.0,0.0,80,0.00,,,0.00,meteohub,2013-02-04 03:27:00,
2013-02-03 19:32:00,50.0,44.1,29.86,NNW,328,0.0,0.0,80,0.00,,,0.00,meteohub,2013-02-04 03:32:00,
2013-02-03 19:37:00,49.8,44.2,29.86,NW,312,0.0,0.0,81,0.00,,,0.00,meteohub,2013-02-04 03:37:00,
2013-02-03 19:43:00,49.6,44.1,29.86,NW,312,0.0,0.0,81,0.00,,,0.00,meteohub,2013-02-04 03:43:00,
2013-02-03 19:48:00,49.3,43.7,29.86,NW,322,0.0,0.0,81,0.00,,,0.00,meteohub,2013-02-04 03:48:00,
2013-02-03 19:53:00,49.3,44.1,29.86,NNW,327,0.0,0.0,82,0.00,,,0.00,meteohub,2013-02-04 03:53:00,
2013-02-03 19:58:00,49.3,44.4,29.86,NW,326,0.0,0.0,83,0.00,,,0.00,meteohub,2013-02-04 03:58:00,
2013-02-03 20:03:00,48.9,43.7,29.86,NNW,327,0.0,0.0,82,0.00,,,0.00,meteohub,2013-02-04 04:03:00,
2013-02-03 20:08:00,48.7,43.5,29.86,NNW,327,0.0,0.0,82,0.00,,,0.00,meteohub,2013-02-04 04:08:00,
2013-02-03 20:13:00,48.4,43.2,29.86,NW,326,0.0,0.0,82,0.00,,,0.00,meteohub,2013-02-04 04:13:00,
2013-02-03 20:18:00,48.0,42.8,29.86,NNW,327,0.0,0.0,82,0.00,,,0.00,meteohub,2013-02-04 04:18:00,
2013-02-03 20:23:00,47.7,42.4,29.86,NNW,327,0.0,0.0,82,0.00,,,0.00,meteohub,2013-02-04 04:23:00,
2013-02-03 20:29:00,47.3,42.1,29.86,NNW,327,0.0,0.0,82,0.00,,,0.00,meteohub,2013-02-04 04:29:00,
2013-02-03 20:34:00,46.9,41.7,29.86,WNW,303,0.0,0.0,82,0.00,,,0.00,meteohub,2013-02-04 04:34:00,
2013-02-03 20:39:00,46.6,41.4,29.86,NW,314,0.0,0.0,82,0.00,,,0.00,meteohub,2013-02-04 04:39:00,
2013-02-03 20:44:00,46.2,41.4,29.86,WNW,294,0.0,0.0,83,0.00,,,0.00,meteohub,2013-02-04 04:44:00,
2013-02-03 20:49:00,46.0,41.2,29.86,NW,312,0.0,4.0,83,0.00,,,0.00,meteohub,2013-02-04 04:49:00,
2013-02-03 20:54:00,45.9,41.0,29.86,NW,312,0.0,4.0,83,0.00,,,0.00,meteohub,2013-02-04 04:54:00,
2013-02-03 20:59:00,45.5,41.0,29.86,NNW,341,0.0,4.0,84,0.00,,,0.00,meteohub,2013-02-04 04:59:00,
2013-02-03 21:00:00,45.5,41.0,29.86,NNW,341,0.0,4.0,84,0.00,,,0.00,meteohub,2013-02-04 05:00:00,
2013-02-03 21:01:00,45.5,41.0,29.86,NNW,341,0.0,0.0,84,0.00,,,0.00,meteohub,2013-02-04 05:01:00,
2013-02-03 21:03:00,45.3,40.8,29.86,NNW,341,0.0,0.0,84,0.00,,,0.00,meteohub,2013-02-04 05:03:00,
2013-02-03 21:08:00,45.3,40.8,29.86,NNW,341,0.0,0.0,84,0.00,,,0.00,meteohub,2013-02-04 05:08:00,
2013-02-03 21:13:00,45.1,40.6,29.86,NNW,341,0.0,0.0,84,0.00,,,0.00,meteohub,2013-02-04 05:13:00,
2013-02-03 21:19:00,44.8,40.3,29.86,NNW,341,0.0,0.0,84,0.00,,,0.00,meteohub,2013-02-04 05:19:00,
2013-02-03 21:24:00,44.4,39.9,29.86,NNW,341,0.0,0.0,84,0.00,,,0.00,meteohub,2013-02-04 05:24:00,
2013-02-03 21:29:00,44.2,39.7,29.86,NNW,341,0.0,0.0,84,0.00,,,0.00,meteohub,2013-02-04 05:29:00,
2013-02-03 21:34:00,44.1,39.6,29.86,NNW,341,0.0,0.0,84,0.00,,,0.00,meteohub,2013-02-04 05:34:00,
2013-02-03 21:39:00,43.7,39.6,29.86,NNW,341,0.0,0.0,85,0.00,,,0.00,meteohub,2013-02-04 05:39:00,
2013-02-03 21:44:00,43.5,39.4,29.86,NNW,341,0.0,0.0,85,0.00,,,0.00,meteohub,2013-02-04 05:44:00,
2013-02-03 21:49:00,43.5,39.4,29.86,NNW,341,0.0,0.0,85,0.00,,,0.00,meteohub,2013-02-04 05:49:00,
2013-02-03 21:54:00,43.3,39.2,29.86,NNW,341,0.0,0.0,85,0.00,,,0.00,meteohub,2013-02-04 05:54:00,
2013-02-03 21:59:00,43.2,39.0,29.86,NNW,341,0.0,0.0,85,0.00,,,0.00,meteohub,2013-02-04 05:59:00,
2013-02-03 22:05:00,42.8,38.7,29.86,NNW,341,0.0,0.0,85,0.00,,,0.00,meteohub,2013-02-04 06:05:00,
2013-02-03 22:10:00,42.8,38.7,29.86,NNW,341,0.0,0.0,85,0.00,,,0.00,meteohub,2013-02-04 06:10:00,
2013-02-03 22:15:00,42.4,38.5,29.86,NNW,341,0.0,0.0,86,0.00,,,0.00,meteohub,2013-02-04 06:15:00,
2013-02-03 22:20:00,42.3,38.3,29.86,NNW,341,0.0,0.0,86,0.00,,,0.00,meteohub,2013-02-04 06:20:00,
2013-02-03 22:25:00,42.1,38.1,29.86,NNW,341,0.0,0.0,86,0.00,,,0.00,meteohub,2013-02-04 06:25:00,
2013-02-03 22:30:00,41.9,37.9,29.86,NNW,341,0.0,0.0,86,0.00,,,0.00,meteohub,2013-02-04 06:30:00,
2013-02-03 22:35:00,41.7,37.8,29.86,NNW,341,0.0,0.0,86,0.00,,,0.00,meteohub,2013-02-04 06:35:00,
2013-02-03 22:40:00,41.5,37.6,29.86,NNW,341,0.0,0.0,86,0.00,,,0.00,meteohub,2013-02-04 06:40:00,
2013-02-03 22:45:00,41.4,37.6,29.86,NNW,341,0.0,0.0,86,0.00,,,0.00,meteohub,2013-02-04 06:45:00,
2013-02-03 22:50:00,41.2,37.4,29.86,NNW,341,0.0,0.0,86,0.00,,,0.00,meteohub,2013-02-04 06:50:00,
2013-02-03 22:55:00,41.2,37.4,29.86,NNW,341,0.0,0.0,86,0.00,,,0.00,meteohub,2013-02-04 06:55:00,
2013-02-03 23:01:00,41.0,37.4,29.86,NNW,341,0.0,0.0,87,0.00,,,0.00,meteohub,2013-02-04 07:01:00,
2013-02-03 23:06:00,40.8,37.2,29.86,NNW,341,0.0,0.0,87,0.00,,,0.00,meteohub,2013-02-04 07:06:00,
2013-02-03 23:11:00,40.6,37.0,29.86,NE,54,0.0,0.0,87,0.00,,,0.00,meteohub,2013-02-04 07:11:00,
2013-02-03 23:16:00,40.6,37.0,29.86,NE,54,0.0,0.0,87,0.00,,,0.00,meteohub,2013-02-04 07:16:00,
2013-02-03 23:21:00,40.6,37.0,29.86,NE,54,0.0,0.0,87,0.00,,,0.00,meteohub,2013-02-04 07:21:00,
2013-02-03 23:26:00,40.5,36.9,29.86,NE,54,0.0,0.0,87,0.00,,,0.00,meteohub,2013-02-04 07:26:00,
2013-02-03 23:31:00,40.5,36.9,29.86,NE,54,0.0,0.0,87,0.00,,,0.00,meteohub,2013-02-04 07:31:00,
2013-02-03 23:36:00,40.3,36.7,29.86,NE,54,0.0,0.0,87,0.00,,,0.00,meteohub,2013-02-04 07:36:00,
2013-02-03 23:41:00,39.9,36.7,29.86,ENE,57,0.0,0.0,88,0.00,,,0.00,meteohub,2013-02-04 07:41:00,
2013-02-03 23:46:00,39.7,36.5,29.86,ENE,58,0.0,0.0,88,0.00,,,0.00,meteohub,2013-02-04 07:46:00,
2013-02-03 23:52:00,39.7,36.5,29.86,ENE,60,0.0,0.0,88,0.00,,,0.00,meteohub,2013-02-04 07:52:00,
2013-02-03 23:57:00,39.6,36.3,29.86,ENE,60,0.0,0.0,88,0.00,,,0.00,meteohub,2013-02-04 07:57:00,